sensor_id;sensor_type;location;lat;lon;timestamp;pressure;altitude;pressure_sealevel;temperature;humidity
57594;BME280;43423;46.510;6.686;2023-04-30T00:01:46;96363.31;;;13.13;81.42
57594;BME280;43423;46.510;6.686;2023-04-30T00:04:12;96349.06;;;13.21;81.27
57594;BME280;43423;46.510;6.686;2023-04-30T00:06:38;96350.81;;;13.29;79.97
57594;BME280;43423;46.510;6.686;2023-04-30T00:09:03;96347.03;;;13.27;78.61
57594;BME280;43423;46.510;6.686;2023-04-30T00:11:29;96339.53;;;13.27;78.51
57594;BME280;43423;46.510;6.686;2023-04-30T00:13:54;96337.25;;;13.31;78.75
57594;BME280;43423;46.510;6.686;2023-04-30T00:16:21;96329.72;;;13.21;78.19
57594;BME280;43423;46.510;6.686;2023-04-30T00:18:47;96326.97;;;13.21;78.43
57594;BME280;43423;46.510;6.686;2023-04-30T00:21:12;96322.38;;;13.18;78.59
57594;BME280;43423;46.510;6.686;2023-04-30T00:23:38;96319.94;;;13.20;78.65
57594;BME280;43423;46.510;6.686;2023-04-30T00:26:03;96325.44;;;13.25;78.32
57594;BME280;43423;46.510;6.686;2023-04-30T00:28:29;96326.22;;;13.20;77.77
57594;BME280;43423;46.510;6.686;2023-04-30T00:30:55;96319.44;;;13.21;77.92
57594;BME280;43423;46.510;6.686;2023-04-30T00:33:20;96327.22;;;13.23;77.39
57594;BME280;43423;46.510;6.686;2023-04-30T00:35:46;96317.63;;;13.12;77.33
57594;BME280;43423;46.510;6.686;2023-04-30T00:38:11;96322.88;;;13.10;77.32
57594;BME280;43423;46.510;6.686;2023-04-30T00:40:39;96313.59;;;13.08;77.01
57594;BME280;43423;46.510;6.686;2023-04-30T00:43:06;96320.13;;;13.05;77.23
57594;BME280;43423;46.510;6.686;2023-04-30T00:45:32;96319.09;;;13.02;76.93
57594;BME280;43423;46.510;6.686;2023-04-30T00:47:57;96314.34;;;12.97;77.55
57594;BME280;43423;46.510;6.686;2023-04-30T00:50:23;96313.56;;;12.97;77.20
57594;BME280;43423;46.510;6.686;2023-04-30T00:52:49;96314.06;;;12.95;77.42
57594;BME280;43423;46.510;6.686;2023-04-30T00:55:15;96310.81;;;12.97;77.11
57594;BME280;43423;46.510;6.686;2023-04-30T00:57:41;96307.78;;;12.95;77.36
57594;BME280;43423;46.510;6.686;2023-04-30T01:00:07;96307.31;;;12.96;77.12
57594;BME280;43423;46.510;6.686;2023-04-30T01:02:36;96296.25;;;12.96;76.65
57594;BME280;43423;46.510;6.686;2023-04-30T01:05:03;96297.50;;;12.90;76.20
57594;BME280;43423;46.510;6.686;2023-04-30T01:07:29;96295.25;;;12.88;77.21
57594;BME280;43423;46.510;6.686;2023-04-30T01:09:55;96294.72;;;12.84;77.80
57594;BME280;43423;46.510;6.686;2023-04-30T01:15:06;96294.97;;;12.86;77.16
57594;BME280;43423;46.510;6.686;2023-04-30T01:17:37;96285.66;;;12.78;77.68
57594;BME280;43423;46.510;6.686;2023-04-30T01:20:07;96293.22;;;12.89;77.24
57594;BME280;43423;46.510;6.686;2023-04-30T01:22:35;96300.22;;;12.84;78.30
57594;BME280;43423;46.510;6.686;2023-04-30T01:25:34;96294.69;;;12.78;77.76
57594;BME280;43423;46.510;6.686;2023-04-30T01:28:14;96287.13;;;12.68;78.53
57594;BME280;43423;46.510;6.686;2023-04-30T01:30:41;96296.66;;;12.67;78.55
57594;BME280;43423;46.510;6.686;2023-04-30T01:33:09;96285.66;;;12.72;78.15
57594;BME280;43423;46.510;6.686;2023-04-30T01:35:59;96293.44;;;12.74;78.24
57594;BME280;43423;46.510;6.686;2023-04-30T01:39:08;96291.66;;;12.71;78.91
57594;BME280;43423;46.510;6.686;2023-04-30T01:41:35;96287.13;;;12.68;78.25
57594;BME280;43423;46.510;6.686;2023-04-30T01:44:23;96289.41;;;12.69;78.47
57594;BME280;43423;46.510;6.686;2023-04-30T01:47:26;96294.91;;;12.69;78.66
57594;BME280;43423;46.510;6.686;2023-04-30T01:50:09;96288.66;;;12.69;78.46
57594;BME280;43423;46.510;6.686;2023-04-30T01:52:40;96291.66;;;12.71;78.40
57594;BME280;43423;46.510;6.686;2023-04-30T01:55:58;96294.41;;;12.71;78.57
57594;BME280;43423;46.510;6.686;2023-04-30T01:58:00;96280.63;;;12.71;77.67
57594;BME280;43423;46.510;6.686;2023-04-30T02:00:28;96284.13;;;12.66;77.93
57594;BME280;43423;46.510;6.686;2023-04-30T02:02:55;96279.84;;;12.59;78.41
57594;BME280;43423;46.510;6.686;2023-04-30T02:05:21;96282.34;;;12.63;78.52
57594;BME280;43423;46.510;6.686;2023-04-30T02:07:48;96281.88;;;12.64;78.44
57594;BME280;43423;46.510;6.686;2023-04-30T02:10:16;96286.34;;;12.62;78.76
57594;BME280;43423;46.510;6.686;2023-04-30T02:12:42;96269.81;;;12.62;78.65
57594;BME280;43423;46.510;6.686;2023-04-30T02:15:08;96281.84;;;12.58;78.83
57594;BME280;43423;46.510;6.686;2023-04-30T02:17:34;96281.34;;;12.60;78.42
57594;BME280;43423;46.510;6.686;2023-04-30T02:19:59;96287.09;;;12.56;78.42
57594;BME280;43423;46.510;6.686;2023-04-30T02:22:25;96284.81;;;12.55;78.82
57594;BME280;43423;46.510;6.686;2023-04-30T02:24:51;96275.53;;;12.52;78.94
57594;BME280;43423;46.510;6.686;2023-04-30T02:27:21;96280.81;;;12.50;79.03
57594;BME280;43423;46.510;6.686;2023-04-30T02:29:46;96285.53;;;12.44;78.95
57594;BME280;43423;46.510;6.686;2023-04-30T02:32:12;96284.03;;;12.43;79.47
57594;BME280;43423;46.510;6.686;2023-04-30T02:34:37;96280.31;;;12.52;79.04
57594;BME280;43423;46.510;6.686;2023-04-30T02:37:03;96283.81;;;12.52;79.28
57594;BME280;43423;46.510;6.686;2023-04-30T02:39:28;96274.03;;;12.51;79.78
57594;BME280;43423;46.510;6.686;2023-04-30T02:41:54;96275.28;;;12.50;79.31
57594;BME280;43423;46.510;6.686;2023-04-30T02:44:20;96278.56;;;12.54;78.98
57594;BME280;43423;46.510;6.686;2023-04-30T02:46:45;96274.06;;;12.63;78.78
57594;BME280;43423;46.510;6.686;2023-04-30T02:49:11;96271.59;;;12.65;79.39
57594;BME280;43423;46.510;6.686;2023-04-30T02:51:36;96266.31;;;12.67;78.56
57594;BME280;43423;46.510;6.686;2023-04-30T02:54:02;96276.34;;;12.70;78.41
57594;BME280;43423;46.510;6.686;2023-04-30T02:56:27;96277.34;;;12.61;78.80
57594;BME280;43423;46.510;6.686;2023-04-30T02:58:53;96275.81;;;12.60;78.83
57594;BME280;43423;46.510;6.686;2023-04-30T03:01:19;96266.06;;;12.59;78.97
57594;BME280;43423;46.510;6.686;2023-04-30T03:03:44;96271.28;;;12.51;78.24
57594;BME280;43423;46.510;6.686;2023-04-30T03:06:10;96270.28;;;12.54;78.96
57594;BME280;43423;46.510;6.686;2023-04-30T03:08:35;96271.50;;;12.48;78.57
57594;BME280;43423;46.510;6.686;2023-04-30T03:11:01;96266.75;;;12.43;78.96
57594;BME280;43423;46.510;6.686;2023-04-30T03:13:26;96262.97;;;12.40;79.36
57594;BME280;43423;46.510;6.686;2023-04-30T03:15:59;96270.00;;;12.41;79.53
57594;BME280;43423;46.510;6.686;2023-04-30T03:18:26;96266.22;;;12.39;79.53
57594;BME280;43423;46.510;6.686;2023-04-30T03:20:52;96268.00;;;12.42;79.56
57594;BME280;43423;46.510;6.686;2023-04-30T03:23:17;96259.41;;;12.28;79.79
57594;BME280;43423;46.510;6.686;2023-04-30T03:25:43;96257.19;;;12.38;79.49
57594;BME280;43423;46.510;6.686;2023-04-30T03:28:08;96260.94;;;12.35;79.50
57594;BME280;43423;46.510;6.686;2023-04-30T03:30:34;96257.66;;;12.31;79.98
57594;BME280;43423;46.510;6.686;2023-04-30T03:32:59;96255.44;;;12.35;79.58
57594;BME280;43423;46.510;6.686;2023-04-30T03:35:25;96260.69;;;12.33;79.69
57594;BME280;43423;46.510;6.686;2023-04-30T03:37:50;96261.88;;;12.21;79.90
57594;BME280;43423;46.510;6.686;2023-04-30T03:40:16;96266.59;;;12.15;80.68
57594;BME280;43423;46.510;6.686;2023-04-30T03:42:41;96257.34;;;12.18;80.71
57594;BME280;43423;46.510;6.686;2023-04-30T03:45:07;96269.09;;;12.13;80.75
57594;BME280;43423;46.510;6.686;2023-04-30T03:47:34;96259.63;;;12.19;81.12
57594;BME280;43423;46.510;6.686;2023-04-30T03:50:00;96264.66;;;12.26;81.20
57594;BME280;43423;46.510;6.686;2023-04-30T03:52:25;96272.72;;;12.36;80.52
57594;BME280;43423;46.510;6.686;2023-04-30T03:54:51;96274.97;;;12.37;80.32
57594;BME280;43423;46.510;6.686;2023-04-30T03:57:17;96272.22;;;12.37;80.63
57594;BME280;43423;46.510;6.686;2023-04-30T03:59:42;96274.50;;;12.44;80.15
57594;BME280;43423;46.510;6.686;2023-04-30T04:02:08;96279.56;;;12.51;79.95
57594;BME280;43423;46.510;6.686;2023-04-30T04:04:34;96275.81;;;12.54;80.13
57594;BME280;43423;46.510;6.686;2023-04-30T04:06:59;96282.34;;;12.63;81.19
57594;BME280;43423;46.510;6.686;2023-04-30T04:09:27;96280.59;;;12.60;82.30
57594;BME280;43423;46.510;6.686;2023-04-30T04:11:52;96286.09;;;12.60;81.18
57594;BME280;43423;46.510;6.686;2023-04-30T04:14:18;96282.53;;;12.48;80.37
57594;BME280;43423;46.510;6.686;2023-04-30T04:16:43;96285.53;;;12.44;80.76
57594;BME280;43423;46.510;6.686;2023-04-30T04:19:09;96287.06;;;12.45;80.74
57594;BME280;43423;46.510;6.686;2023-04-30T04:21:35;96295.09;;;12.49;79.73
57594;BME280;43423;46.510;6.686;2023-04-30T04:24:01;96294.41;;;12.65;78.60
57594;BME280;43423;46.510;6.686;2023-04-30T04:26:35;96294.34;;;12.54;78.95
57594;BME280;43423;46.510;6.686;2023-04-30T04:29:02;96301.63;;;12.51;79.28
57594;BME280;43423;46.510;6.686;2023-04-30T04:31:29;96300.84;;;12.45;79.11
57594;BME280;43423;46.510;6.686;2023-04-30T04:33:55;96299.63;;;12.52;79.83
57594;BME280;43423;46.510;6.686;2023-04-30T04:36:23;96297.34;;;12.50;79.89
57594;BME280;43423;46.510;6.686;2023-04-30T04:38:48;96305.34;;;12.43;81.17
57594;BME280;43423;46.510;6.686;2023-04-30T04:41:14;96303.09;;;12.47;79.66
57594;BME280;43423;46.510;6.686;2023-04-30T04:43:39;96301.38;;;12.49;79.18
57594;BME280;43423;46.510;6.686;2023-04-30T04:46:05;96295.84;;;12.55;79.63
57594;BME280;43423;46.510;6.686;2023-04-30T04:48:33;96297.13;;;12.60;80.32
57594;BME280;43423;46.510;6.686;2023-04-30T04:50:59;96306.41;;;12.56;79.14
57594;BME280;43423;46.510;6.686;2023-04-30T04:53:25;96305.38;;;12.54;79.47
57594;BME280;43423;46.510;6.686;2023-04-30T04:55:50;96310.69;;;12.57;79.39
57594;BME280;43423;46.510;6.686;2023-04-30T04:58:16;96309.94;;;12.57;78.67
57594;BME280;43423;46.510;6.686;2023-04-30T05:00:43;96312.41;;;12.55;79.38
57594;BME280;43423;46.510;6.686;2023-04-30T05:03:08;96314.41;;;12.49;79.65
57594;BME280;43423;46.510;6.686;2023-04-30T05:05:34;96318.41;;;12.53;78.97
57594;BME280;43423;46.510;6.686;2023-04-30T05:08:00;96315.66;;;12.53;79.15
57594;BME280;43423;46.510;6.686;2023-04-30T05:10:25;96316.41;;;12.54;78.83
57594;BME280;43423;46.510;6.686;2023-04-30T05:12:51;96320.69;;;12.49;79.80
57594;BME280;43423;46.510;6.686;2023-04-30T05:15:17;96322.19;;;12.50;79.39
57594;BME280;43423;46.510;6.686;2023-04-30T05:17:42;96317.63;;;12.47;79.33
57594;BME280;43423;46.510;6.686;2023-04-30T05:20:08;96318.69;;;12.55;79.70
57594;BME280;43423;46.510;6.686;2023-04-30T05:22:34;96319.47;;;12.56;79.98
57594;BME280;43423;46.510;6.686;2023-04-30T05:24:59;96324.69;;;12.48;78.47
57594;BME280;43423;46.510;6.686;2023-04-30T05:27:25;96323.69;;;12.51;78.36
57594;BME280;43423;46.510;6.686;2023-04-30T05:29:51;96319.91;;;12.49;78.58
57594;BME280;43423;46.510;6.686;2023-04-30T05:32:17;96312.91;;;12.53;78.14
57594;BME280;43423;46.510;6.686;2023-04-30T05:34:42;96328.72;;;12.58;78.53
57594;BME280;43423;46.510;6.686;2023-04-30T05:37:08;96313.16;;;12.55;78.39
57594;BME280;43423;46.510;6.686;2023-04-30T05:39:33;96320.97;;;12.57;78.98
57594;BME280;43423;46.510;6.686;2023-04-30T05:41:58;96316.69;;;12.62;78.81
57594;BME280;43423;46.510;6.686;2023-04-30T05:44:24;96312.69;;;12.63;78.29
57594;BME280;43423;46.510;6.686;2023-04-30T05:46:49;96315.44;;;12.63;78.79
57594;BME280;43423;46.510;6.686;2023-04-30T05:49:15;96313.19;;;12.61;77.91
57594;BME280;43423;46.510;6.686;2023-04-30T05:51:40;96320.25;;;12.68;78.32
57594;BME280;43423;46.510;6.686;2023-04-30T05:54:06;96323.03;;;12.73;77.41
57594;BME280;43423;46.510;6.686;2023-04-30T05:56:32;96316.44;;;12.60;78.35
57594;BME280;43423;46.510;6.686;2023-04-30T05:58:57;96315.72;;;12.65;77.91
57594;BME280;43423;46.510;6.686;2023-04-30T06:01:23;96320.22;;;12.56;78.30
57594;BME280;43423;46.510;6.686;2023-04-30T06:03:49;96311.44;;;12.58;78.82
57594;BME280;43423;46.510;6.686;2023-04-30T06:06:15;96319.72;;;12.64;78.54
57594;BME280;43423;46.510;6.686;2023-04-30T06:08:40;96318.00;;;12.72;78.09
57594;BME280;43423;46.510;6.686;2023-04-30T06:11:10;96316.25;;;12.74;78.36
57594;BME280;43423;46.510;6.686;2023-04-30T06:13:36;96324.78;;;12.76;78.37
57594;BME280;43423;46.510;6.686;2023-04-30T06:16:01;96319.78;;;12.75;78.09
57594;BME280;43423;46.510;6.686;2023-04-30T06:18:27;96325.03;;;12.78;77.87
57594;BME280;43423;46.510;6.686;2023-04-30T06:20:52;96326.78;;;12.76;78.39
57594;BME280;43423;46.510;6.686;2023-04-30T06:23:18;96328.31;;;12.77;77.81
57594;BME280;43423;46.510;6.686;2023-04-30T06:25:44;96328.81;;;12.86;77.86
57594;BME280;43423;46.510;6.686;2023-04-30T06:28:09;96330.09;;;12.85;78.14
57594;BME280;43423;46.510;6.686;2023-04-30T06:30:35;96333.88;;;12.88;78.09
57594;BME280;43423;46.510;6.686;2023-04-30T06:33:01;96338.13;;;12.89;77.52
57594;BME280;43423;46.510;6.686;2023-04-30T06:35:26;96328.34;;;12.88;77.74
57594;BME280;43423;46.510;6.686;2023-04-30T06:37:52;96331.13;;;12.94;77.43
57594;BME280;43423;46.510;6.686;2023-04-30T06:40:17;96333.38;;;12.95;78.22
57594;BME280;43423;46.510;6.686;2023-04-30T06:42:44;96337.38;;;12.94;77.99
57594;BME280;43423;46.510;6.686;2023-04-30T06:45:10;96335.16;;;12.98;77.54
57594;BME280;43423;46.510;6.686;2023-04-30T06:47:36;96330.63;;;13.01;78.32
57594;BME280;43423;46.510;6.686;2023-04-30T06:50:03;96337.31;;;12.72;80.93
57594;BME280;43423;46.510;6.686;2023-04-30T06:52:29;96329.25;;;12.63;84.16
57594;BME280;43423;46.510;6.686;2023-04-30T06:54:54;96323.22;;;12.16;87.80
57594;BME280;43423;46.510;6.686;2023-04-30T06:57:20;96325.88;;;11.93;88.83
57594;BME280;43423;46.510;6.686;2023-04-30T06:59:45;96320.06;;;11.91;90.65
57594;BME280;43423;46.510;6.686;2023-04-30T07:02:12;96328.78;;;11.84;89.86
57594;BME280;43423;46.510;6.686;2023-04-30T07:04:37;96320.88;;;11.97;90.80
57594;BME280;43423;46.510;6.686;2023-04-30T07:07:03;96319.84;;;11.95;87.62
57594;BME280;43423;46.510;6.686;2023-04-30T07:09:29;96322.31;;;12.30;88.13
57594;BME280;43423;46.510;6.686;2023-04-30T07:11:56;96325.16;;;12.41;85.96
57594;BME280;43423;46.510;6.686;2023-04-30T07:14:22;96320.88;;;12.40;86.16
57594;BME280;43423;46.510;6.686;2023-04-30T07:16:49;96321.25;;;12.70;81.86
57594;BME280;43423;46.510;6.686;2023-04-30T07:19:15;96328.03;;;12.75;83.51
57594;BME280;43423;46.510;6.686;2023-04-30T07:21:41;96323.81;;;12.85;80.74
57594;BME280;43423;46.510;6.686;2023-04-30T07:24:06;96320.00;;;12.71;82.17
57594;BME280;43423;46.510;6.686;2023-04-30T07:26:35;96328.66;;;12.47;83.29
57594;BME280;43423;46.510;6.686;2023-04-30T07:29:01;96328.31;;;12.28;85.61
57594;BME280;43423;46.510;6.686;2023-04-30T07:31:26;96334.59;;;12.29;85.07
57594;BME280;43423;46.510;6.686;2023-04-30T07:33:52;96336.78;;;12.19;84.00
57594;BME280;43423;46.510;6.686;2023-04-30T07:36:19;96330.41;;;12.45;83.69
57594;BME280;43423;46.510;6.686;2023-04-30T07:38:45;96339.31;;;12.66;85.52
57594;BME280;43423;46.510;6.686;2023-04-30T07:41:10;96327.22;;;12.63;82.79
57594;BME280;43423;46.510;6.686;2023-04-30T07:43:36;96331.31;;;12.79;83.07
57594;BME280;43423;46.510;6.686;2023-04-30T07:46:01;96332.94;;;13.19;82.22
57594;BME280;43423;46.510;6.686;2023-04-30T07:48:28;96330.19;;;13.13;80.70
57594;BME280;43423;46.510;6.686;2023-04-30T07:50:54;96334.44;;;13.14;80.37
57594;BME280;43423;46.510;6.686;2023-04-30T07:53:19;96335.44;;;13.11;80.42
57594;BME280;43423;46.510;6.686;2023-04-30T07:55:45;96331.88;;;12.94;80.47
57594;BME280;43423;46.510;6.686;2023-04-30T07:58:10;96330.63;;;12.95;79.44
57594;BME280;43423;46.510;6.686;2023-04-30T08:00:36;96326.41;;;13.17;80.16
57594;BME280;43423;46.510;6.686;2023-04-30T08:03:01;96325.47;;;13.31;79.56
57594;BME280;43423;46.510;6.686;2023-04-30T08:05:27;96328.97;;;13.26;77.23
57594;BME280;43423;46.510;6.686;2023-04-30T08:07:53;96325.97;;;13.29;78.86
57594;BME280;43423;46.510;6.686;2023-04-30T08:10:18;96329.25;;;13.28;79.59
57594;BME280;43423;46.510;6.686;2023-04-30T08:12:44;96320.44;;;13.24;80.10
57594;BME280;43423;46.510;6.686;2023-04-30T08:15:10;96319.38;;;13.16;77.61
57594;BME280;43423;46.510;6.686;2023-04-30T08:17:35;96322.19;;;13.27;78.26
57594;BME280;43423;46.510;6.686;2023-04-30T08:20:04;96326.66;;;13.19;78.88
57594;BME280;43423;46.510;6.686;2023-04-30T08:22:31;96336.69;;;13.05;79.26
57594;BME280;43423;46.510;6.686;2023-04-30T08:24:57;96328.91;;;13.14;78.51
57594;BME280;43423;46.510;6.686;2023-04-30T08:27:22;96329.41;;;13.07;78.85
57594;BME280;43423;46.510;6.686;2023-04-30T08:29:48;96332.19;;;13.19;79.60
57594;BME280;43423;46.510;6.686;2023-04-30T08:32:13;96338.97;;;13.18;81.00
57594;BME280;43423;46.510;6.686;2023-04-30T08:34:39;96331.94;;;13.17;79.58
57594;BME280;43423;46.510;6.686;2023-04-30T08:37:06;96331.94;;;13.17;79.20
57594;BME280;43423;46.510;6.686;2023-04-30T08:39:31;96335.69;;;13.08;80.73
57594;BME280;43423;46.510;6.686;2023-04-30T08:42:01;96340.69;;;13.09;80.00
57594;BME280;43423;46.510;6.686;2023-04-30T08:44:28;96342.94;;;13.00;80.04
57594;BME280;43423;46.510;6.686;2023-04-30T08:46:55;96345.41;;;12.92;80.41
57594;BME280;43423;46.510;6.686;2023-04-30T08:49:21;96355.16;;;12.82;83.04
57594;BME280;43423;46.510;6.686;2023-04-30T08:51:47;96349.41;;;12.80;82.50
57594;BME280;43423;46.510;6.686;2023-04-30T08:54:13;96348.91;;;12.87;81.68
57594;BME280;43423;46.510;6.686;2023-04-30T08:56:39;96349.94;;;12.95;81.12
57594;BME280;43423;46.510;6.686;2023-04-30T08:59:06;96350.44;;;12.88;81.33
57594;BME280;43423;46.510;6.686;2023-04-30T09:01:33;96348.41;;;12.83;82.18
57594;BME280;43423;46.510;6.686;2023-04-30T09:03:59;96358.91;;;12.79;82.15
57594;BME280;43423;46.510;6.686;2023-04-30T09:06:27;96349.38;;;12.74;81.49
57594;BME280;43423;46.510;6.686;2023-04-30T09:08:52;96350.66;;;12.84;82.46
57594;BME280;43423;46.510;6.686;2023-04-30T09:13:51;96354.63;;;12.78;81.94
57594;BME280;43423;46.510;6.686;2023-04-30T09:16:18;96355.38;;;12.73;81.67
57594;BME280;43423;46.510;6.686;2023-04-30T09:18:44;96366.16;;;12.76;81.66
57594;BME280;43423;46.510;6.686;2023-04-30T09:21:10;96362.13;;;12.66;80.96
57594;BME280;43423;46.510;6.686;2023-04-30T09:23:53;96362.22;;;12.94;81.47
57594;BME280;43423;46.510;6.686;2023-04-30T09:26:26;96353.75;;;13.03;80.61
57594;BME280;43423;46.510;6.686;2023-04-30T09:28:56;96353.56;;;13.24;79.88
57594;BME280;43423;46.510;6.686;2023-04-30T09:31:22;96351.22;;;13.11;77.90
57594;BME280;43423;46.510;6.686;2023-04-30T09:33:49;96359.25;;;12.98;80.00
57594;BME280;43423;46.510;6.686;2023-04-30T09:36:15;96357.53;;;13.11;79.33
57594;BME280;43423;46.510;6.686;2023-04-30T09:38:41;96361.72;;;12.90;80.16
57594;BME280;43423;46.510;6.686;2023-04-30T09:41:23;96363.44;;;12.82;81.58
57594;BME280;43423;46.510;6.686;2023-04-30T09:43:49;96361.50;;;12.99;80.74
57594;BME280;43423;46.510;6.686;2023-04-30T09:46:17;96359.53;;;13.17;80.55
57594;BME280;43423;46.510;6.686;2023-04-30T09:48:43;96364.78;;;13.09;80.18
57594;BME280;43423;46.510;6.686;2023-04-30T09:51:09;96362.81;;;13.15;79.42
57594;BME280;43423;46.510;6.686;2023-04-30T09:53:40;96369.06;;;13.04;80.34
57594;BME280;43423;46.510;6.686;2023-04-30T09:56:06;96362.97;;;12.89;80.01
57594;BME280;43423;46.510;6.686;2023-04-30T09:58:36;96372.03;;;13.01;81.86
57594;BME280;43423;46.510;6.686;2023-04-30T10:01:07;96373.56;;;13.07;81.67
57594;BME280;43423;46.510;6.686;2023-04-30T10:03:38;96373.47;;;12.85;83.70
57594;BME280;43423;46.510;6.686;2023-04-30T10:06:05;96363.47;;;12.93;82.18
57594;BME280;43423;46.510;6.686;2023-04-30T10:08:37;96367.53;;;13.03;82.08
57594;BME280;43423;46.510;6.686;2023-04-30T10:11:06;96368.78;;;13.02;80.46
57594;BME280;43423;46.510;6.686;2023-04-30T10:13:58;96361.78;;;13.07;79.62
57594;BME280;43423;46.510;6.686;2023-04-30T10:19:11;96367.31;;;13.12;81.44
57594;BME280;43423;46.510;6.686;2023-04-30T10:21:39;96364.63;;;13.29;80.09
57594;BME280;43423;46.510;6.686;2023-04-30T10:24:05;96370.34;;;13.14;79.77
57594;BME280;43423;46.510;6.686;2023-04-30T10:26:31;96368.56;;;13.11;80.66
57594;BME280;43423;46.510;6.686;2023-04-30T10:28:59;96367.03;;;13.10;80.95
57594;BME280;43423;46.510;6.686;2023-04-30T10:31:25;96366.50;;;13.01;80.94
57594;BME280;43423;46.510;6.686;2023-04-30T10:36:36;96369.06;;;13.04;81.50
57594;BME280;43423;46.510;6.686;2023-04-30T10:39:04;96362.84;;;13.21;81.04
57594;BME280;43423;46.510;6.686;2023-04-30T10:41:30;96363.59;;;13.27;79.29
57594;BME280;43423;46.510;6.686;2023-04-30T10:43:57;96356.34;;;13.40;78.31
57594;BME280;43423;46.510;6.686;2023-04-30T10:46:25;96358.63;;;13.36;78.10
57594;BME280;43423;46.510;6.686;2023-04-30T10:48:53;96351.09;;;13.37;78.46
57594;BME280;43423;46.510;6.686;2023-04-30T10:51:19;96361.13;;;13.40;77.91
57594;BME280;43423;46.510;6.686;2023-04-30T10:53:49;96355.34;;;13.32;79.06
57594;BME280;43423;46.510;6.686;2023-04-30T10:56:31;96360.34;;;13.34;78.03
57594;BME280;43423;46.510;6.686;2023-04-30T10:59:00;96355.84;;;13.42;79.04
57594;BME280;43423;46.510;6.686;2023-04-30T11:01:27;96358.38;;;13.57;79.85
57594;BME280;43423;46.510;6.686;2023-04-30T11:04:07;96354.88;;;13.56;76.96
57594;BME280;43423;46.510;6.686;2023-04-30T11:06:50;96354.13;;;13.73;77.93
57594;BME280;43423;46.510;6.686;2023-04-30T11:09:20;96356.38;;;13.74;77.51
57594;BME280;43423;46.510;6.686;2023-04-30T11:12:03;96358.66;;;13.76;77.36
57594;BME280;43423;46.510;6.686;2023-04-30T11:14:33;96353.91;;;13.76;77.31
57594;BME280;43423;46.510;6.686;2023-04-30T11:16:59;96346.09;;;13.63;76.27
57594;BME280;43423;46.510;6.686;2023-04-30T11:19:27;96349.34;;;13.56;76.89
57594;BME280;43423;46.510;6.686;2023-04-30T11:27:23;96355.41;;;13.94;77.05
57594;BME280;43423;46.510;6.686;2023-04-30T11:29:50;96352.13;;;13.79;75.62
57594;BME280;43423;46.510;6.686;2023-04-30T11:32:18;96348.84;;;13.63;76.00
57594;BME280;43423;46.510;6.686;2023-04-30T11:34:44;96353.13;;;13.64;75.77
57594;BME280;43423;46.510;6.686;2023-04-30T11:37:17;96345.84;;;13.73;77.13
57594;BME280;43423;46.510;6.686;2023-04-30T11:39:44;96357.38;;;13.82;75.36
57594;BME280;43423;46.510;6.686;2023-04-30T11:42:15;96356.41;;;13.85;75.45
57594;BME280;43423;46.510;6.686;2023-04-30T11:44:42;96357.41;;;13.71;76.27
57594;BME280;43423;46.510;6.686;2023-04-30T11:47:07;96356.91;;;13.78;75.64
57594;BME280;43423;46.510;6.686;2023-04-30T11:49:33;96366.69;;;13.74;76.05
57594;BME280;43423;46.510;6.686;2023-04-30T11:51:59;96353.91;;;13.76;75.78
57594;BME280;43423;46.510;6.686;2023-04-30T11:54:25;96357.41;;;13.71;77.06
57594;BME280;43423;46.510;6.686;2023-04-30T11:56:50;96355.38;;;13.66;77.40
57594;BME280;43423;46.510;6.686;2023-04-30T11:59:17;96358.66;;;13.70;77.24
57594;BME280;43423;46.510;6.686;2023-04-30T12:01:43;96356.66;;;13.87;77.58
57594;BME280;43423;46.510;6.686;2023-04-30T12:04:09;96355.63;;;13.96;77.77
57594;BME280;43423;46.510;6.686;2023-04-30T12:06:35;96352.38;;;14.14;76.06
57594;BME280;43423;46.510;6.686;2023-04-30T12:09:02;96358.16;;;13.94;76.34
57594;BME280;43423;46.510;6.686;2023-04-30T12:11:32;96343.56;;;14.10;76.86
57594;BME280;43423;46.510;6.686;2023-04-30T12:14:03;96364.44;;;14.00;75.13
57594;BME280;43423;46.510;6.686;2023-04-30T12:19:04;96358.41;;;13.96;76.81
57594;BME280;43423;46.510;6.686;2023-04-30T12:21:29;96367.97;;;14.06;75.54
57594;BME280;43423;46.510;6.686;2023-04-30T12:23:55;96362.16;;;14.15;75.38
57594;BME280;43423;46.510;6.686;2023-04-30T12:26:21;96365.44;;;14.03;75.81
57594;BME280;43423;46.510;6.686;2023-04-30T12:28:47;96368.44;;;13.88;75.13
57594;BME280;43423;46.510;6.686;2023-04-30T12:31:15;96370.22;;;13.96;74.00
57594;BME280;43423;46.510;6.686;2023-04-30T12:33:42;96367.47;;;14.08;75.45
57594;BME280;43423;46.510;6.686;2023-04-30T12:36:10;96366.19;;;14.03;74.21
57594;BME280;43423;46.510;6.686;2023-04-30T12:38:41;96360.44;;;14.07;73.74
57594;BME280;43423;46.510;6.686;2023-04-30T12:41:10;96366.41;;;14.28;75.21
57594;BME280;43423;46.510;6.686;2023-04-30T12:43:38;96357.59;;;14.35;73.80
57594;BME280;43423;46.510;6.686;2023-04-30T12:46:03;96364.91;;;14.55;74.16
57594;BME280;43423;46.510;6.686;2023-04-30T12:48:29;96367.84;;;14.68;73.07
57594;BME280;43423;46.510;6.686;2023-04-30T12:50:58;96365.31;;;14.75;73.00
57594;BME280;43423;46.510;6.686;2023-04-30T12:53:24;96361.81;;;14.75;71.01
57594;BME280;43423;46.510;6.686;2023-04-30T12:56:09;96355.56;;;14.52;71.61
57594;BME280;43423;46.510;6.686;2023-04-30T12:58:36;96358.06;;;14.61;71.83
57594;BME280;43423;46.510;6.686;2023-04-30T13:01:02;96355.81;;;14.65;72.68
57594;BME280;43423;46.510;6.686;2023-04-30T13:03:28;96356.53;;;14.71;71.33
57594;BME280;43423;46.510;6.686;2023-04-30T13:05:53;96352.50;;;14.72;71.09
57594;BME280;43423;46.510;6.686;2023-04-30T13:08:19;96351.78;;;14.66;71.82
57594;BME280;43423;46.510;6.686;2023-04-30T13:10:46;96356.25;;;14.86;72.10
57594;BME280;43423;46.510;6.686;2023-04-30T13:13:16;96352.00;;;14.74;71.39
57594;BME280;43423;46.510;6.686;2023-04-30T13:15:42;96347.22;;;14.69;71.68
57594;BME280;43423;46.510;6.686;2023-04-30T13:18:08;96353.72;;;14.77;70.32
57594;BME280;43423;46.510;6.686;2023-04-30T13:20:37;96355.25;;;14.78;70.52